sensor_id;sensor_type;location;lat;lon;timestamp;pressure;altitude;pressure_sealevel;temperature;humidity
2397;BME280;1209;48.410;9.054;2024-03-25T00:00:35;95535.34;;;4.54;100.00
2397;BME280;1209;48.410;9.054;2024-03-25T00:03:00;95526.63;;;4.55;100.00
2397;BME280;1209;48.410;9.054;2024-03-25T00:05:25;95531.31;;;4.52;100.00
2397;BME280;1209;48.410;9.054;2024-03-25T00:07:51;95537.59;;;4.49;100.00
2397;BME280;1209;48.410;9.054;2024-03-25T00:10:17;95541.28;;;4.38;100.00
2397;BME280;1209;48.410;9.054;2024-03-25T00:12:45;95538.22;;;4.43;100.00
2397;BME280;1209;48.410;9.054;2024-03-25T00:15:10;95538.41;;;4.50;100.00
2397;BME280;1209;48.410;9.054;2024-03-25T00:17:36;95531.31;;;4.52;100.00
2397;BME280;1209;48.410;9.054;2024-03-25T00:20:01;95535.66;;;4.51;100.00
2397;BME280;1209;48.410;9.054;2024-03-25T00:22:27;95533.72;;;4.45;100.00
2397;BME280;1209;48.410;9.054;2024-03-25T00:24:52;95529.06;;;4.57;100.00
2397;BME280;1209;48.410;9.054;2024-03-25T00:27:18;95530.69;;;4.58;100.00
2397;BME280;1209;48.410;9.054;2024-03-25T00:29:44;95529.56;;;4.60;100.00
2397;BME280;1209;48.410;9.054;2024-03-25T00:32:10;95521.66;;;4.62;100.00
2397;BME280;1209;48.410;9.054;2024-03-25T00:34:35;95529.75;;;4.67;100.00
2397;BME280;1209;48.410;9.054;2024-03-25T00:37:01;95532.81;;;4.62;100.00
2397;BME280;1209;48.410;9.054;2024-03-25T00:39:27;95532.66;;;4.64;100.00
2397;BME280;1209;48.410;9.054;2024-03-25T00:41:53;95530.06;;;4.64;100.00
2397;BME280;1209;48.410;9.054;2024-03-25T00:44:19;95519.22;;;4.60;100.00
2397;BME280;1209;48.410;9.054;2024-03-25T00:46:44;95524.69;;;4.49;100.00
2397;BME280;1209;48.410;9.054;2024-03-25T00:49:11;95519.34;;;4.51;100.00
2397;BME280;1209;48.410;9.054;2024-03-25T00:51:37;95515.78;;;4.52;100.00
2397;BME280;1209;48.410;9.054;2024-03-25T00:54:02;95516.41;;;4.46;100.00
2397;BME280;1209;48.410;9.054;2024-03-25T00:56:31;95521.91;;;4.42;100.00
2397;BME280;1209;48.410;9.054;2024-03-25T00:58:57;95520.28;;;4.41;100.00
2397;BME280;1209;48.410;9.054;2024-03-25T01:01:27;95514.50;;;4.48;100.00
2397;BME280;1209;48.410;9.054;2024-03-25T01:03:52;95512.84;;;4.38;100.00
2397;BME280;1209;48.410;9.054;2024-03-25T01:06:17;95517.03;;;4.39;100.00
2397;BME280;1209;48.410;9.054;2024-03-25T01:08:43;95512.03;;;4.38;100.00
2397;BME280;1209;48.410;9.054;2024-03-25T01:11:08;95514.28;;;4.33;100.00
2397;BME280;1209;48.410;9.054;2024-03-25T01:13:34;95506.34;;;4.26;100.00
2397;BME280;1209;48.410;9.054;2024-03-25T01:15:59;95507.13;;;4.27;100.00
2397;BME280;1209;48.410;9.054;2024-03-25T01:18:24;95509.72;;;4.27;100.00
2397;BME280;1209;48.410;9.054;2024-03-25T01:20:50;95509.50;;;4.20;100.00
2397;BME280;1209;48.410;9.054;2024-03-25T01:23:15;95508.34;;;4.15;100.00
2397;BME280;1209;48.410;9.054;2024-03-25T01:25:41;95503.94;;;4.07;100.00
2397;BME280;1209;48.410;9.054;2024-03-25T01:28:06;95509.28;;;4.05;100.00
2397;BME280;1209;48.410;9.054;2024-03-25T01:30:32;95499.34;;;3.93;100.00
2397;BME280;1209;48.410;9.054;2024-03-25T01:33:00;95505.22;;;4.03;100.00
2397;BME280;1209;48.410;9.054;2024-03-25T01:35:25;95511.50;;;4.00;100.00
2397;BME280;1209;48.410;9.054;2024-03-25T01:37:51;95509.78;;;4.09;100.00
2397;BME280;1209;48.410;9.054;2024-03-25T01:40:16;95502.38;;;4.14;100.00
2397;BME280;1209;48.410;9.054;2024-03-25T01:42:41;95501.38;;;4.07;100.00
2397;BME280;1209;48.410;9.054;2024-03-25T01:45:07;95516.06;;;4.06;100.00
2397;BME280;1209;48.410;9.054;2024-03-25T01:47:35;95507.53;;;4.14;100.00
2397;BME280;1209;48.410;9.054;2024-03-25T01:50:02;95505.59;;;4.16;100.00
2397;BME280;1209;48.410;9.054;2024-03-25T01:52:29;95497.22;;;4.14;100.00
2397;BME280;1209;48.410;9.054;2024-03-25T01:54:56;95504.66;;;4.17;100.00
2397;BME280;1209;48.410;9.054;2024-03-25T01:57:21;95505.81;;;4.23;100.00
2397;BME280;1209;48.410;9.054;2024-03-25T01:59:47;95503.75;;;4.26;100.00
2397;BME280;1209;48.410;9.054;2024-03-25T02:02:12;95517.00;;;4.31;100.00
2397;BME280;1209;48.410;9.054;2024-03-25T02:04:42;95507.34;;;4.33;100.00
2397;BME280;1209;48.410;9.054;2024-03-25T02:07:08;95505.88;;;4.31;100.00
2397;BME280;1209;48.410;9.054;2024-03-25T02:09:35;95504.03;;;4.23;100.00
2397;BME280;1209;48.410;9.054;2024-03-25T02:12:01;95501.25;;;4.17;100.00
2397;BME280;1209;48.410;9.054;2024-03-25T02:14:27;95491.72;;;4.17;100.00
2397;BME280;1209;48.410;9.054;2024-03-25T02:16:52;95494.47;;;4.16;100.00
2397;BME280;1209;48.410;9.054;2024-03-25T02:19:18;95486.88;;;4.14;100.00
2397;BME280;1209;48.410;9.054;2024-03-25T02:21:43;95484.75;;;4.09;100.00
2397;BME280;1209;48.410;9.054;2024-03-25T02:24:09;95484.75;;;4.09;100.00
2397;BME280;1209;48.410;9.054;2024-03-25T02:26:35;95494.28;;;4.09;100.00
2397;BME280;1209;48.410;9.054;2024-03-25T02:29:01;95477.66;;;4.11;100.00
2397;BME280;1209;48.410;9.054;2024-03-25T02:31:27;95477.50;;;4.13;100.00
2397;BME280;1209;48.410;9.054;2024-03-25T02:33:52;95476.38;;;4.16;100.00
2397;BME280;1209;48.410;9.054;2024-03-25T02:36:17;95477.69;;;4.20;100.00
2397;BME280;1209;48.410;9.054;2024-03-25T02:38:43;95468.31;;;4.19;100.00
2397;BME280;1209;48.410;9.054;2024-03-25T02:41:08;95472.84;;;4.17;100.00
2397;BME280;1209;48.410;9.054;2024-03-25T02:43:34;95473.16;;;4.14;100.00
2397;BME280;1209;48.410;9.054;2024-03-25T02:45:59;95464.44;;;4.15;100.00
2397;BME280;1209;48.410;9.054;2024-03-25T02:48:25;95464.59;;;4.13;100.00
2397;BME280;1209;48.410;9.054;2024-03-25T02:50:51;95461.84;;;4.15;100.00
2397;BME280;1209;48.410;9.054;2024-03-25T02:53:17;95459.41;;;4.13;100.00
2397;BME280;1209;48.410;9.054;2024-03-25T02:55:42;95462.31;;;4.10;100.00
2397;BME280;1209;48.410;9.054;2024-03-25T02:58:07;95464.84;;;4.02;100.00
2397;BME280;1209;48.410;9.054;2024-03-25T03:00:32;95472.66;;;4.10;100.00
2397;BME280;1209;48.410;9.054;2024-03-25T03:02:58;95473.03;;;3.89;100.00
2397;BME280;1209;48.410;9.054;2024-03-25T03:05:23;95473.34;;;3.86;100.00
2397;BME280;1209;48.410;9.054;2024-03-25T03:07:48;95480.88;;;3.79;100.00
2397;BME280;1209;48.410;9.054;2024-03-25T03:10:14;95475.84;;;3.78;100.00
2397;BME280;1209;48.410;9.054;2024-03-25T03:12:41;95470.94;;;3.67;100.00
2397;BME280;1209;48.410;9.054;2024-03-25T03:15:06;95481.84;;;3.78;100.00
2397;BME280;1209;48.410;9.054;2024-03-25T03:17:32;95480.59;;;3.65;100.00
2397;BME280;1209;48.410;9.054;2024-03-25T03:19:57;95477.06;;;3.66;100.00
2397;BME280;1209;48.410;9.054;2024-03-25T03:22:22;95479.13;;;3.62;100.00
2397;BME280;1209;48.410;9.054;2024-03-25T03:24:48;95483.66;;;3.60;100.00
2397;BME280;1209;48.410;9.054;2024-03-25T03:27:13;95472.66;;;3.58;100.00
2397;BME280;1209;48.410;9.054;2024-03-25T03:29:38;95475.84;;;3.52;100.00
2397;BME280;1209;48.410;9.054;2024-03-25T03:32:04;95475.53;;;3.55;100.00
2397;BME280;1209;48.410;9.054;2024-03-25T03:34:29;95483.25;;;3.47;100.00
2397;BME280;1209;48.410;9.054;2024-03-25T03:36:54;95477.13;;;3.48;100.00
2397;BME280;1209;48.410;9.054;2024-03-25T03:39:20;95476.53;;;3.36;100.00
2397;BME280;1209;48.410;9.054;2024-03-25T03:41:45;95478.03;;;3.39;100.00
2397;BME280;1209;48.410;9.054;2024-03-25T03:44:10;95478.81;;;3.39;100.00
2397;BME280;1209;48.410;9.054;2024-03-25T03:46:37;95481.94;;;3.07;100.00
2397;BME280;1209;48.410;9.054;2024-03-25T03:49:02;95486.50;;;3.13;100.00
2397;BME280;1209;48.410;9.054;2024-03-25T03:51:28;95484.53;;;2.90;100.00
2397;BME280;1209;48.410;9.054;2024-03-25T03:53:53;95481.88;;;2.99;100.00
2397;BME280;1209;48.410;9.054;2024-03-25T03:56:18;95479.81;;;2.85;100.00
2397;BME280;1209;48.410;9.054;2024-03-25T03:58:44;95493.44;;;2.95;100.00
2397;BME280;1209;48.410;9.054;2024-03-25T04:01:16;95484.38;;;2.91;100.00
2397;BME280;1209;48.410;9.054;2024-03-25T04:03:42;95493.28;;;2.97;100.00
2397;BME280;1209;48.410;9.054;2024-03-25T04:06:11;95486.22;;;2.99;100.00
2397;BME280;1209;48.410;9.054;2024-03-25T04:08:38;95492.09;;;2.91;100.00
2397;BME280;1209;48.410;9.054;2024-03-25T04:11:04;95483.84;;;3.05;100.00
2397;BME280;1209;48.410;9.054;2024-03-25T04:13:31;95476.38;;;2.67;100.00
2397;BME280;1209;48.410;9.054;2024-03-25T04:16:00;95477.00;;;2.96;100.00
2397;BME280;1209;48.410;9.054;2024-03-25T04:18:27;95475.16;;;2.89;100.00
2397;BME280;1209;48.410;9.054;2024-03-25T04:20:55;95472.72;;;2.87;100.00
2397;BME280;1209;48.410;9.054;2024-03-25T04:23:20;95469.91;;;2.80;100.00
2397;BME280;1209;48.410;9.054;2024-03-25T04:25:46;95460.25;;;2.65;100.00
2397;BME280;1209;48.410;9.054;2024-03-25T04:28:11;95465.81;;;2.88;100.00
2397;BME280;1209;48.410;9.054;2024-03-25T04:30:36;95474.19;;;3.07;100.00
2397;BME280;1209;48.410;9.054;2024-03-25T04:33:02;95470.97;;;3.05;100.00
2397;BME280;1209;48.410;9.054;2024-03-25T04:35:27;95465.59;;;2.99;100.00
2397;BME280;1209;48.410;9.054;2024-03-25T04:37:53;95466.72;;;2.51;100.00
2397;BME280;1209;48.410;9.054;2024-03-25T04:40:20;95462.03;;;2.64;100.00
2397;BME280;1209;48.410;9.054;2024-03-25T04:42:47;95455.03;;;2.74;100.00
2397;BME280;1209;48.410;9.054;2024-03-25T04:45:12;95453.63;;;2.80;100.00
2397;BME280;1209;48.410;9.054;2024-03-25T04:47:38;95457.94;;;2.89;100.00
2397;BME280;1209;48.410;9.054;2024-03-25T04:50:05;95466.16;;;2.75;100.00
2397;BME280;1209;48.410;9.054;2024-03-25T04:52:31;95461.34;;;2.80;100.00
2397;BME280;1209;48.410;9.054;2024-03-25T04:54:56;95466.09;;;2.84;100.00
2397;BME280;1209;48.410;9.054;2024-03-25T04:57:21;95462.91;;;2.73;100.00
2397;BME280;1209;48.410;9.054;2024-03-25T04:59:47;95463.88;;;2.72;100.00
2397;BME280;1209;48.410;9.054;2024-03-25T05:02:13;95458.19;;;2.68;100.00
2397;BME280;1209;48.410;9.054;2024-03-25T05:04:39;95455.91;;;2.83;100.00
2397;BME280;1209;48.410;9.054;2024-03-25T05:07:04;95463.56;;;2.75;100.00
2397;BME280;1209;48.410;9.054;2024-03-25T05:09:29;95462.03;;;2.82;100.00
2397;BME280;1209;48.410;9.054;2024-03-25T05:11:55;95463.97;;;2.98;100.00
2397;BME280;1209;48.410;9.054;2024-03-25T05:14:20;95463.66;;;3.01;100.00
2397;BME280;1209;48.410;9.054;2024-03-25T05:16:45;95469.03;;;3.07;100.00
2397;BME280;1209;48.410;9.054;2024-03-25T05:19:11;95471.78;;;2.88;100.00
2397;BME280;1209;48.410;9.054;2024-03-25T05:21:36;95463.28;;;2.78;100.00
2397;BME280;1209;48.410;9.054;2024-03-25T05:24:01;95459.22;;;2.75;100.00
2397;BME280;1209;48.410;9.054;2024-03-25T05:26:26;95445.69;;;2.91;100.00
2397;BME280;1209;48.410;9.054;2024-03-25T05:28:55;95448.47;;;3.15;100.00
2397;BME280;1209;48.410;9.054;2024-03-25T05:31:21;95458.03;;;3.41;100.00
2397;BME280;1209;48.410;9.054;2024-03-25T05:33:46;95448.28;;;3.53;100.00
2397;BME280;1209;48.410;9.054;2024-03-25T05:36:12;95449.09;;;3.79;100.00
2397;BME280;1209;48.410;9.054;2024-03-25T05:38:37;95445.75;;;3.87;100.00
2397;BME280;1209;48.410;9.054;2024-03-25T05:41:03;95452.38;;;3.89;100.00
2397;BME280;1209;48.410;9.054;2024-03-25T05:43:29;95457.69;;;3.88;100.00
2397;BME280;1209;48.410;9.054;2024-03-25T05:45:55;95463.31;;;3.83;100.00
2397;BME280;1209;48.410;9.054;2024-03-25T05:48:21;95468.22;;;3.68;100.00
2397;BME280;1209;48.410;9.054;2024-03-25T05:50:59;95465.31;;;3.45;100.00
2397;BME280;1209;48.410;9.054;2024-03-25T05:53:26;95465.97;;;3.47;100.00
2397;BME280;1209;48.410;9.054;2024-03-25T05:55:51;95467.66;;;3.57;100.00
2397;BME280;1209;48.410;9.054;2024-03-25T05:58:17;95461.44;;;3.67;100.00
2397;BME280;1209;48.410;9.054;2024-03-25T06:00:42;95464.72;;;3.52;100.00
2397;BME280;1209;48.410;9.054;2024-03-25T06:03:07;95462.94;;;3.08;100.00
2397;BME280;1209;48.410;9.054;2024-03-25T06:05:32;95454.22;;;3.09;100.00
2397;BME280;1209;48.410;9.054;2024-03-25T06:07:58;95451.34;;;3.12;100.00
2397;BME280;1209;48.410;9.054;2024-03-25T06:10:23;95450.81;;;3.27;100.00
2397;BME280;1209;48.410;9.054;2024-03-25T06:12:48;95454.00;;;3.38;100.00
2397;BME280;1209;48.410;9.054;2024-03-25T06:15:16;95457.28;;;3.31;100.00
2397;BME280;1209;48.410;9.054;2024-03-25T06:17:41;95458.56;;;3.27;100.00
2397;BME280;1209;48.410;9.054;2024-03-25T06:20:07;95467.50;;;3.32;100.00
2397;BME280;1209;48.410;9.054;2024-03-25T06:22:33;95476.53;;;3.36;100.00
2397;BME280;1209;48.410;9.054;2024-03-25T06:24:58;95471.09;;;3.39;100.00
2397;BME280;1209;48.410;9.054;2024-03-25T06:27:23;95473.31;;;3.34;100.00
2397;BME280;1209;48.410;9.054;2024-03-25T06:29:49;95471.91;;;3.40;100.00
2397;BME280;1209;48.410;9.054;2024-03-25T06:32:34;95477.78;;;3.50;100.00
2397;BME280;1209;48.410;9.054;2024-03-25T06:35:18;95479.28;;;3.78;100.00
2397;BME280;1209;48.410;9.054;2024-03-25T06:37:43;95484.13;;;3.82;100.00
2397;BME280;1209;48.410;9.054;2024-03-25T06:40:09;95485.78;;;3.91;100.00
2397;BME280;1209;48.410;9.054;2024-03-25T06:42:35;95491.31;;;3.96;100.00
2397;BME280;1209;48.410;9.054;2024-03-25T06:45:00;95495.59;;;4.13;100.00
2397;BME280;1209;48.410;9.054;2024-03-25T06:47:25;95498.31;;;4.37;100.00
2397;BME280;1209;48.410;9.054;2024-03-25T06:49:51;95490.56;;;4.46;100.00
2397;BME280;1209;48.410;9.054;2024-03-25T06:52:17;95495.91;;;4.44;100.00
2397;BME280;1209;48.410;9.054;2024-03-25T06:54:42;95506.75;;;4.56;100.00
2397;BME280;1209;48.410;9.054;2024-03-25T06:57:07;95500.47;;;4.58;100.00
2397;BME280;1209;48.410;9.054;2024-03-25T06:59:32;95499.38;;;4.69;100.00
2397;BME280;1209;48.410;9.054;2024-03-25T07:02:02;95502.50;;;4.89;100.00
2397;BME280;1209;48.410;9.054;2024-03-25T07:04:27;95501.56;;;4.98;100.00
2397;BME280;1209;48.410;9.054;2024-03-25T07:06:53;95492.88;;;5.23;100.00
2397;BME280;1209;48.410;9.054;2024-03-25T07:09:18;95496.75;;;5.27;100.00
2397;BME280;1209;48.410;9.054;2024-03-25T07:11:43;95496.75;;;5.35;100.00
2397;BME280;1209;48.410;9.054;2024-03-25T07:14:12;95484.78;;;5.43;100.00
2397;BME280;1209;48.410;9.054;2024-03-25T07:16:38;95483.16;;;5.58;100.00
2397;BME280;1209;48.410;9.054;2024-03-25T07:19:03;95482.03;;;5.68;100.00
2397;BME280;1209;48.410;9.054;2024-03-25T07:21:29;95487.84;;;5.71;100.00
2397;BME280;1209;48.410;9.054;2024-03-25T07:23:54;95483.31;;;5.81;100.00
2397;BME280;1209;48.410;9.054;2024-03-25T07:26:19;95485.06;;;5.88;100.00
2397;BME280;1209;48.410;9.054;2024-03-25T07:28:45;95494.94;;;6.01;100.00
2397;BME280;1209;48.410;9.054;2024-03-25T07:31:10;95477.25;;;6.21;100.00
2397;BME280;1209;48.410;9.054;2024-03-25T07:33:35;95484.47;;;6.42;100.00
2397;BME280;1209;48.410;9.054;2024-03-25T07:36:01;95477.66;;;6.41;100.00
2397;BME280;1209;48.410;9.054;2024-03-25T07:38:26;95471.75;;;6.55;100.00
2397;BME280;1209;48.410;9.054;2024-03-25T07:40:52;95470.91;;;6.71;100.00
2397;BME280;1209;48.410;9.054;2024-03-25T07:43:17;95476.22;;;6.77;100.00
2397;BME280;1209;48.410;9.054;2024-03-25T07:45:43;95472.38;;;6.96;100.00
2397;BME280;1209;48.410;9.054;2024-03-25T07:48:08;95465.59;;;7.18;100.00
2397;BME280;1209;48.410;9.054;2024-03-25T07:50:33;95461.47;;;7.46;100.00
2397;BME280;1209;48.410;9.054;2024-03-25T07:52:59;95458.59;;;7.41;100.00
2397;BME280;1209;48.410;9.054;2024-03-25T07:55:24;95468.97;;;7.64;100.00
2397;BME280;1209;48.410;9.054;2024-03-25T07:57:49;95459.19;;;7.66;100.00
2397;BME280;1209;48.410;9.054;2024-03-25T08:00:15;95459.28;;;7.58;100.00
2397;BME280;1209;48.410;9.054;2024-03-25T08:02:41;95466.66;;;7.46;100.00
2397;BME280;1209;48.410;9.054;2024-03-25T08:05:06;95458.66;;;7.71;100.00
2397;BME280;1209;48.410;9.054;2024-03-25T08:07:32;95452.56;;;7.64;100.00
2397;BME280;1209;48.410;9.054;2024-03-25T08:09:57;95461.38;;;7.92;100.00
2397;BME280;1209;48.410;9.054;2024-03-25T08:12:22;95453.16;;;8.18;100.00
2397;BME280;1209;48.410;9.054;2024-03-25T08:14:48;95452.16;;;8.48;100.00
2397;BME280;1209;48.410;9.054;2024-03-25T08:17:13;95455.41;;;8.50;97.23
2397;BME280;1209;48.410;9.054;2024-03-25T08:19:38;95452.38;;;8.83;99.78
2397;BME280;1209;48.410;9.054;2024-03-25T08:22:04;95458.19;;;8.49;96.88
2397;BME280;1209;48.410;9.054;2024-03-25T08:24:29;95446.84;;;8.71;90.90
2397;BME280;1209;48.410;9.054;2024-03-25T08:26:54;95441.53;;;8.79;92.21
2397;BME280;1209;48.410;9.054;2024-03-25T08:29:20;95446.69;;;8.94;90.92
2397;BME280;1209;48.410;9.054;2024-03-25T08:31:45;95438.47;;;9.12;92.59
2397;BME280;1209;48.410;9.054;2024-03-25T08:34:10;95431.75;;;9.45;88.47
2397;BME280;1209;48.410;9.054;2024-03-25T08:36:36;95434.25;;;9.32;88.00
2397;BME280;1209;48.410;9.054;2024-03-25T08:39:01;95436.09;;;9.38;88.52
2397;BME280;1209;48.410;9.054;2024-03-25T08:41:27;95429.38;;;9.72;88.03
2397;BME280;1209;48.410;9.054;2024-03-25T08:43:52;95427.41;;;9.81;90.86
2397;BME280;1209;48.410;9.054;2024-03-25T08:46:17;95428.22;;;10.09;88.78
2397;BME280;1209;48.410;9.054;2024-03-25T08:48:43;95429.19;;;10.36;86.76
2397;BME280;1209;48.410;9.054;2024-03-25T08:51:08;95423.84;;;10.51;84.08
2397;BME280;1209;48.410;9.054;2024-03-25T08:53:33;95418.22;;;10.47;80.92
2397;BME280;1209;48.410;9.054;2024-03-25T08:55:59;95425.00;;;9.51;84.89
2397;BME280;1209;48.410;9.054;2024-03-25T08:58:24;95421.19;;;10.09;88.15
2397;BME280;1209;48.410;9.054;2024-03-25T09:00:50;95412.78;;;11.16;85.07
2397;BME280;1209;48.410;9.054;2024-03-25T09:03:15;95406.75;;;11.16;76.22
2397;BME280;1209;48.410;9.054;2024-03-25T09:05:41;95401.94;;;11.32;78.86
2397;BME280;1209;48.410;9.054;2024-03-25T09:08:06;95405.34;;;11.66;75.43
2397;BME280;1209;48.410;9.054;2024-03-25T09:10:32;95401.53;;;11.62;74.45
2397;BME280;1209;48.410;9.054;2024-03-25T09:13:16;95395.13;;;11.78;72.45
2397;BME280;1209;48.410;9.054;2024-03-25T09:15:42;95392.91;;;11.88;71.69
2397;BME280;1209;48.410;9.054;2024-03-25T09:18:07;95395.53;;;11.88;68.74
2397;BME280;1209;48.410;9.054;2024-03-25T09:20:32;95397.50;;;12.06;65.87
2397;BME280;1209;48.410;9.054;2024-03-25T09:22:58;95389.41;;;12.14;68.21
2397;BME280;1209;48.410;9.054;2024-03-25T09:25:23;95389.16;;;12.35;65.32
2397;BME280;1209;48.410;9.054;2024-03-25T09:27:49;95387.28;;;12.49;63.11
2397;BME280;1209;48.410;9.054;2024-03-25T09:30:15;95384.56;;;12.31;63.85
2397;BME280;1209;48.410;9.054;2024-03-25T09:32:41;95386.44;;;12.04;64.09
2397;BME280;1209;48.410;9.054;2024-03-25T09:35:08;95377.97;;;12.02;63.66
2397;BME280;1209;48.410;9.054;2024-03-25T09:37:33;95387.09;;;12.50;63.64
2397;BME280;1209;48.410;9.054;2024-03-25T09:39:59;95380.19;;;12.63;59.46
2397;BME280;1209;48.410;9.054;2024-03-25T09:42:34;95377.47;;;12.76;60.08
2397;BME280;1209;48.410;9.054;2024-03-25T09:45:01;95369.00;;;13.18;61.57
2397;BME280;1209;48.410;9.054;2024-03-25T09:47:26;95374.09;;;12.31;58.44
2397;BME280;1209;48.410;9.054;2024-03-25T09:49:54;95365.00;;;12.33;60.62
2397;BME280;1209;48.410;9.054;2024-03-25T09:52:20;95360.94;;;12.44;59.88
2397;BME280;1209;48.410;9.054;2024-03-25T09:54:45;95363.69;;;13.32;56.87
2397;BME280;1209;48.410;9.054;2024-03-25T09:57:11;95356.97;;;13.36;58.35
2397;BME280;1209;48.410;9.054;2024-03-25T09:59:37;95347.81;;;13.45;56.54
2397;BME280;1209;48.410;9.054;2024-03-25T10:02:03;95342.22;;;12.78;58.15
2397;BME280;1209;48.410;9.054;2024-03-25T10:04:29;95331.41;;;12.61;57.80
2397;BME280;1209;48.410;9.054;2024-03-25T10:06:55;95328.31;;;12.78;60.57
2397;BME280;1209;48.410;9.054;2024-03-25T10:09:21;95323.63;;;13.43;57.78
2397;BME280;1209;48.410;9.054;2024-03-25T10:11:49;95323.25;;;13.39;55.72
2397;BME280;1209;48.410;9.054;2024-03-25T10:14:15;95316.66;;;13.55;57.51
2397;BME280;1209;48.410;9.054;2024-03-25T10:16:42;95313.69;;;12.95;56.97
2397;BME280;1209;48.410;9.054;2024-03-25T10:19:07;95299.78;;;12.95;56.28
2397;BME280;1209;48.410;9.054;2024-03-25T10:21:33;95289.16;;;12.13;57.21
2397;BME280;1209;48.410;9.054;2024-03-25T10:23:58;95292.03;;;12.75;57.37
2397;BME280;1209;48.410;9.054;2024-03-25T10:26:33;95290.03;;;13.95;56.65
2397;BME280;1209;48.410;9.054;2024-03-25T10:29:06;95288.72;;;12.61;57.15
2397;BME280;1209;48.410;9.054;2024-03-25T10:31:33;95293.03;;;12.80;52.89
2397;BME280;1209;48.410;9.054;2024-03-25T10:33:59;95297.56;;;13.48;51.10
2397;BME280;1209;48.410;9.054;2024-03-25T10:36:25;95288.22;;;13.77;51.70
2397;BME280;1209;48.410;9.054;2024-03-25T10:38:55;95295.59;;;13.18;50.47
2397;BME280;1209;48.410;9.054;2024-03-25T10:41:21;95288.19;;;13.09;53.07
2397;BME280;1209;48.410;9.054;2024-03-25T10:43:48;95284.44;;;12.98;51.75
2397;BME280;1209;48.410;9.054;2024-03-25T10:46:17;95281.53;;;12.81;53.63
2397;BME280;1209;48.410;9.054;2024-03-25T10:48:53;95280.00;;;12.99;52.59
2397;BME280;1209;48.410;9.054;2024-03-25T10:51:21;95279.53;;;12.77;54.74
2397;BME280;1209;48.410;9.054;2024-03-25T10:53:49;95272.88;;;12.81;52.95
2397;BME280;1209;48.410;9.054;2024-03-25T10:56:19;95267.84;;;13.04;53.05
2397;BME280;1209;48.410;9.054;2024-03-25T10:58:47;95263.31;;;14.16;51.64
2397;BME280;1209;48.410;9.054;2024-03-25T11:01:13;95267.09;;;14.68;50.57
2397;BME280;1209;48.410;9.054;2024-03-25T11:03:40;95255.59;;;14.03;50.73
2397;BME280;1209;48.410;9.054;2024-03-25T11:06:07;95248.31;;;13.86;53.80
2397;BME280;1209;48.410;9.054;2024-03-25T11:08:32;95245.75;;;13.98;52.86
2397;BME280;1209;48.410;9.054;2024-03-25T11:10:57;95235.63;;;14.32;49.92
2397;BME280;1209;48.410;9.054;2024-03-25T11:13:23;95240.91;;;14.32;49.92
2397;BME280;1209;48.410;9.054;2024-03-25T11:15:49;95230.38;;;14.62;52.49
2397;BME280;1209;48.410;9.054;2024-03-25T11:18:16;95224.50;;;15.48;51.37
2397;BME280;1209;48.410;9.054;2024-03-25T11:20:42;95220.44;;;15.17;53.31
2397;BME280;1209;48.410;9.054;2024-03-25T11:23:13;95220.28;;;15.35;54.77
2397;BME280;1209;48.410;9.054;2024-03-25T11:25:41;95210.84;;;14.58;51.79
2397;BME280;1209;48.410;9.054;2024-03-25T11:28:08;95198.63;;;14.22;52.83
2397;BME280;1209;48.410;9.054;2024-03-25T11:30:36;95200.38;;;14.39;51.83
2397;BME280;1209;48.410;9.054;2024-03-25T11:33:02;95182.50;;;13.88;49.38
2397;BME280;1209;48.410;9.054;2024-03-25T11:35:29;95179.69;;;14.31;49.52
2397;BME280;1209;48.410;9.054;2024-03-25T11:37:58;95178.88;;;14.31;48.74
2397;BME280;1209;48.410;9.054;2024-03-25T11:40:23;95170.31;;;15.35;48.14
2397;BME280;1209;48.410;9.054;2024-03-25T11:42:48;95169.31;;;15.25;48.93
2397;BME280;1209;48.410;9.054;2024-03-25T11:45:16;95176.06;;;15.21;49.80
2397;BME280;1209;48.410;9.054;2024-03-25T11:47:42;95159.63;;;15.54;48.23
2397;BME280;1209;48.410;9.054;2024-03-25T11:50:10;95163.31;;;14.59;47.19
2397;BME280;1209;48.410;9.054;2024-03-25T11:52:35;95152.13;;;15.34;47.75
2397;BME280;1209;48.410;9.054;2024-03-25T11:55:01;95140.81;;;14.63;48.10
2397;BME280;1209;48.410;9.054;2024-03-25T11:57:28;95140.16;;;14.79;47.21
2397;BME280;1209;48.410;9.054;2024-03-25T11:59:53;95137.38;;;15.09;46.64
2397;BME280;1209;48.410;9.054;2024-03-25T12:02:19;95129.63;;;15.03;46.17
2397;BME280;1209;48.410;9.054;2024-03-25T12:04:44;95125.97;;;15.56;48.08
2397;BME280;1209;48.410;9.054;2024-03-25T12:07:16;95127.34;;;16.44;44.45
2397;BME280;1209;48.410;9.054;2024-03-25T12:09:41;95125.72;;;15.81;48.85
2397;BME280;1209;48.410;9.054;2024-03-25T12:12:26;95104.41;;;15.82;43.87
2397;BME280;1209;48.410;9.054;2024-03-25T12:14:52;95097.97;;;15.50;43.88
2397;BME280;1209;48.410;9.054;2024-03-25T12:17:18;95098.88;;;15.03;45.52
2397;BME280;1209;48.410;9.054;2024-03-25T12:19:44;95099.78;;;15.21;46.32
2397;BME280;1209;48.410;9.054;2024-03-25T12:22:10;95097.41;;;15.48;43.00
2397;BME280;1209;48.410;9.054;2024-03-25T12:24:36;95081.03;;;16.48;42.43
2397;BME280;1209;48.410;9.054;2024-03-25T12:27:02;95086.97;;;15.53;47.42
2397;BME280;1209;48.410;9.054;2024-03-25T12:29:28;95074.81;;;15.75;46.13
2397;BME280;1209;48.410;9.054;2024-03-25T12:31:57;95085.72;;;15.15;47.60
2397;BME280;1209;48.410;9.054;2024-03-25T12:34:24;95073.19;;;14.82;46.66
2397;BME280;1209;48.410;9.054;2024-03-25T12:36:50;95066.97;;;15.11;43.15
2397;BME280;1209;48.410;9.054;2024-03-25T12:39:16;95069.34;;;15.53;44.42
2397;BME280;1209;48.410;9.054;2024-03-25T12:41:42;95064.72;;;16.00;45.27
2397;BME280;1209;48.410;9.054;2024-03-25T12:44:07;95063.09;;;15.02;43.00
2397;BME280;1209;48.410;9.054;2024-03-25T12:46:33;95055.31;;;15.07;44.64
2397;BME280;1209;48.410;9.054;2024-03-25T12:48:58;95044.38;;;14.87;44.00
2397;BME280;1209;48.410;9.054;2024-03-25T12:51:25;95036.50;;;14.64;42.38
2397;BME280;1209;48.410;9.054;2024-03-25T12:53:50;95025.22;;;14.75;43.49
2397;BME280;1209;48.410;9.054;2024-03-25T12:56:16;95033.19;;;15.89;41.50
2397;BME280;1209;48.410;9.054;2024-03-25T12:58:41;95029.75;;;15.31;42.87
2397;BME280;1209;48.410;9.054;2024-03-25T13:01:08;95015.59;;;15.49;44.30
2397;BME280;1209;48.410;9.054;2024-03-25T13:03:33;95025.19;;;15.55;40.71
2397;BME280;1209;48.410;9.054;2024-03-25T13:05:59;95008.59;;;15.55;41.18
2397;BME280;1209;48.410;9.054;2024-03-25T13:08:24;95013.72;;;15.73;41.14
2397;BME280;1209;48.410;9.054;2024-03-25T13:10:50;95006.34;;;15.47;40.30
2397;BME280;1209;48.410;9.054;2024-03-25T13:13:15;95006.13;;;15.48;42.21
2397;BME280;1209;48.410;9.054;2024-03-25T13:15:41;94997.44;;;15.48;40.19